Mint Spring, Virginia
Current Conditions -  °F | °C
As of 6:55 PM on Wednesday 22 Oct 2014 (Local Time) from KW13 Reporting Station
Broken Clouds Broken Clouds  
Wind Chill: 51°   Ceiling: 3800
Heat Index: 51°   Visibility: 10mi
Dew Point: 40°   Wind: 6mph
Humidity: 67%   Direction: 340°NNW
Pressure: 30.03"   Gusts: NA
Location:  38.07°N, 79.1°W
Report Text: KW13 222255Z AUTO 34005KT 10SM BKN038 BKN070 11/05 A3003 RMK AO1 T01050047
Loading
Personal Weather Stations






























Interactive Weather Map
Tropical Storm Tracking
New forecast layout! Learn more

10-Day Weather Forecast

Advertisements
Track Severe Weather on mobile